Time;durP1;ratioP1;P1;durP2;ratioP2;P2;SDS_P1;SDS_P2;PMS_P1;PMS_P2;Temp;Humidity;BMP_temperature;BMP_pressure;BME280_temperature;BME280_humidity;BME280_pressure;Samples;Min_cycle;Max_cycle;Signal;HPM_P1;HPM_P2
2021/10/20 00:00:20;;;;;;;4.50;4.13;;;;;;;11.95;76.60;100608.84;4861078;29;20442;-74
2021/10/20 00:02:49;;;;;;;4.95;4.53;;;;;;;11.93;76.16;100605.53;4860991;29;20414;-74
2021/10/20 00:05:15;;;;;;;4.85;4.22;;;;;;;11.89;75.54;100607.09;4857299;29;20906;-74
2021/10/20 00:07:41;;;;;;;5.50;4.63;;;;;;;11.89;76.21;100613.34;4861551;29;20437;-74
2021/10/20 00:10:07;;;;;;;4.90;4.50;;;;;;;11.83;76.71;100603.50;4861027;29;20914;-74
2021/10/20 00:12:32;;;;;;;7.50;4.47;;;;;;;11.79;76.76;100601.50;4860781;29;20535;-74
2021/10/20 00:14:58;;;;;;;5.13;4.27;;;;;;;11.76;77.10;100599.28;4861158;29;20509;-74
2021/10/20 00:17:23;;;;;;;6.00;4.78;;;;;;;11.72;77.10;100598.97;4860928;29;20421;-74
2021/10/20 00:19:54;;;;;;;5.03;4.60;;;;;;;11.72;76.86;100592.75;4858492;29;20555;-74
2021/10/20 00:22:20;;;;;;;5.68;4.43;;;;;;;11.68;77.32;100597.00;4860960;29;20458;-74
2021/10/20 00:24:45;;;;;;;4.67;4.23;;;;;;;11.64;77.09;100588.53;4858965;29;20422;-74
2021/10/20 00:27:10;;;;;;;5.00;4.60;;;;;;;11.63;77.23;100575.19;4861110;29;20953;-74
2021/10/20 00:29:36;;;;;;;6.93;4.40;;;;;;;11.60;76.60;100578.41;4860536;29;20406;-74
2021/10/20 00:32:01;;;;;;;5.50;4.47;;;;;;;11.59;76.45;100568.63;4843962;29;20428;-74
2021/10/20 00:34:26;;;;;;;4.23;3.90;;;;;;;11.58;76.51;100566.97;4860456;29;20422;-74
2021/10/20 00:36:51;;;;;;;4.67;4.27;;;;;;;11.54;76.55;100563.09;4860791;29;20434;-74
2021/10/20 00:39:17;;;;;;;5.30;3.80;;;;;;;11.49;76.23;100555.72;4859693;29;20971;-74
2021/10/20 00:41:42;;;;;;;5.20;4.53;;;;;;;11.48;76.36;100547.81;4860723;29;20418;-74
2021/10/20 00:44:07;;;;;;;5.63;4.20;;;;;;;11.44;76.66;100548.31;4860398;29;20430;-74
2021/10/20 00:46:32;;;;;;;6.27;4.20;;;;;;;11.42;76.12;100541.50;4859048;29;20482;-74
2021/10/20 00:48:58;;;;;;;4.63;3.90;;;;;;;11.40;76.46;100540.91;4860862;29;20921;-74
2021/10/20 00:51:26;;;;;;;4.87;4.40;;;;;;;11.37;76.77;100525.97;4860524;29;20866;-74
2021/10/20 00:53:59;;;;;;;7.30;4.30;;;;;;;11.36;77.04;100528.94;4858257;29;20434;-74
2021/10/20 00:56:26;;;;;;;8.13;4.68;;;;;;;11.34;77.44;100521.03;4860598;29;20455;-74
2021/10/20 00:58:52;;;;;;;5.18;4.25;;;;;;;11.36;77.19;100512.66;4859342;29;20419;-74
2021/10/20 01:01:17;;;;;;;7.03;4.28;;;;;;;11.39;77.39;100512.16;4858980;29;20410;-74
2021/10/20 01:03:45;;;;;;;4.80;4.38;;;;;;;11.40;77.29;100511.06;4859626;29;20525;-74
2021/10/20 01:06:11;;;;;;;6.45;4.20;;;;;;;11.42;77.07;100503.53;4856921;29;20930;-74
2021/10/20 01:08:37;;;;;;;4.45;4.05;;;;;;;11.44;76.56;100498.66;4859385;29;20430;-74
2021/10/20 01:11:03;;;;;;;5.88;4.90;;;;;;;11.45;76.36;100503.00;4860242;29;20403;-74
2021/10/20 01:13:29;;;;;;;4.50;4.10;;;;;;;11.45;76.02;100501.13;4860110;29;20767;-75
2021/10/20 01:15:56;;;;;;;4.05;3.67;;;;;;;11.45;75.69;100492.16;4858873;29;20434;-74
2021/10/20 01:18:21;;;;;;;5.57;3.58;;;;;;;11.48;75.70;100496.25;4859780;29;20429;-74
2021/10/20 01:20:47;;;;;;;4.30;4.00;;;;;;;11.49;75.55;100493.31;4854771;29;20511;-74
2021/10/20 01:23:13;;;;;;;5.40;4.10;;;;;;;11.47;75.57;100487.28;4858909;29;20458;-74
2021/10/20 01:25:38;;;;;;;8.43;3.85;;;;;;;11.47;76.03;100490.00;4859891;29;20795;-74
2021/10/20 01:28:04;;;;;;;5.30;4.27;;;;;;;11.48;75.76;100485.41;4859921;29;20406;-74
2021/10/20 01:30:29;;;;;;;9.90;4.47;;;;;;;11.47;76.19;100490.00;4857888;29;20427;-74
2021/10/20 01:32:55;;;;;;;4.30;3.90;;;;;;;11.44;76.73;100483.19;4859525;29;20447;-74
2021/10/20 01:35:20;;;;;;;7.00;4.77;;;;;;;11.41;77.00;100493.72;4842114;29;20491;-74
2021/10/20 01:37:45;;;;;;;4.83;4.43;;;;;;;11.41;77.25;100488.28;4859086;29;20422;-74
2021/10/20 01:40:11;;;;;;;5.25;4.57;;;;;;;11.41;77.21;100482.88;4857119;29;20429;-74
2021/10/20 01:42:38;;;;;;;8.20;4.95;;;;;;;11.41;77.28;100480.97;4859282;29;20484;-74
2021/10/20 01:45:10;;;;;;;5.13;4.63;;;;;;;11.41;77.37;100477.44;4859514;29;20454;-74
2021/10/20 01:47:35;;;;;;;6.03;5.53;;;;;;;11.40;77.81;100475.78;4859402;29;20433;-74
2021/10/20 01:50:01;;;;;;;6.63;5.50;;;;;;;11.39;77.78;100476.88;4859309;29;20410;-74
2021/10/20 01:52:27;;;;;;;7.97;5.67;;;;;;;11.38;77.81;100470.63;4859673;29;20410;-74
2021/10/20 01:54:52;;;;;;;5.03;4.53;;;;;;;11.37;77.98;100474.41;4856593;29;20924;-74
2021/10/20 01:57:17;;;;;;;4.87;4.13;;;;;;;11.37;77.98;100466.25;4859041;29;20473;-73
2021/10/20 01:59:42;;;;;;;7.70;4.30;;;;;;;11.34;77.87;100466.78;4858585;29;20486;-74
2021/10/20 02:02:16;;;;;;;4.90;4.40;;;;;;;11.33;78.02;100467.81;4859306;29;20462;-74
2021/10/20 02:04:41;;;;;;;5.25;4.75;;;;;;;11.33;78.04;100464.28;4842406;29;20422;-74
2021/10/20 02:07:06;;;;;;;5.10;4.60;;;;;;;11.33;78.02;100465.13;4858720;29;20497;-74
2021/10/20 02:09:32;;;;;;;6.10;4.30;;;;;;;11.35;77.47;100459.44;4858267;29;20559;-74
2021/10/20 02:11:57;;;;;;;5.97;4.22;;;;;;;11.35;77.35;100462.16;4859140;29;20405;-74
2021/10/20 02:14:22;;;;;;;5.63;4.10;;;;;;;11.35;77.34;100456.75;4859484;29;20429;-74
2021/10/20 02:16:48;;;;;;;4.47;4.07;;;;;;;11.34;77.37;100449.66;4858775;29;20418;-74
2021/10/20 02:19:13;;;;;;;4.67;4.27;;;;;;;11.33;77.52;100451.53;4859512;29;20398;-74
2021/10/20 02:21:38;;;;;;;5.00;4.50;;;;;;;11.30;76.76;100443.91;4858640;29;20916;-74
2021/10/20 02:24:04;;;;;;;4.73;4.33;;;;;;;11.25;76.51;100434.88;4857665;29;20691;-74
2021/10/20 02:26:29;;;;;;;5.22;4.22;;;;;;;11.23;76.47;100434.34;4858845;29;20441;-74
2021/10/20 02:28:54;;;;;;;5.53;4.67;;;;;;;11.20;76.41;100429.38;4858411;29;20437;-74
2021/10/20 02:31:20;;;;;;;6.83;4.83;;;;;;;11.13;76.53;100432.25;4858964;29;20418;-74
2021/10/20 02:33:45;;;;;;;5.57;4.67;;;;;;;11.10;76.39;100416.50;4859361;29;20441;-74
2021/10/20 02:36:10;;;;;;;4.60;4.03;;;;;;;11.09;76.66;100422.19;4858526;29;20854;-74
2021/10/20 02:38:35;;;;;;;4.67;4.27;;;;;;;11.08;76.69;100413.22;4858043;29;20430;-74
2021/10/20 02:41:01;;;;;;;4.93;3.85;;;;;;;11.06;76.68;100407.25;4859023;29;20434;-74
2021/10/20 02:43:26;;;;;;;5.30;4.80;;;;;;;11.04;77.17;100406.66;4859074;29;20406;-74
2021/10/20 02:45:51;;;;;;;8.85;4.55;;;;;;;11.02;77.48;100399.84;4842138;29;20820;-74
2021/10/20 02:48:17;;;;;;;4.90;4.40;;;;;;;11.00;77.72;100397.34;4841420;29;20460;-74
2021/10/20 02:50:42;;;;;;;6.20;3.97;;;;;;;11.02;77.70;100391.69;4858934;29;20410;-74
2021/10/20 02:53:08;;;;;;;4.90;4.45;;;;;;;11.02;77.69;100387.09;4857375;29;20418;-74
2021/10/20 02:55:33;;;;;;;5.37;4.83;;;;;;;11.01;78.13;100385.44;4858867;29;20499;-74
2021/10/20 02:57:58;;;;;;;5.63;4.30;;;;;;;11.00;78.22;100383.81;4857975;29;20906;-74
2021/10/20 03:00:24;;;;;;;5.10;4.60;;;;;;;11.00;78.52;100385.72;4858538;29;20505;-74
2021/10/20 03:02:49;;;;;;;7.07;4.50;;;;;;;10.99;78.11;100381.34;4842109;29;20444;-74
2021/10/20 03:05:15;;;;;;;6.07;4.50;;;;;;;11.00;78.28;100374.88;4858448;29;20402;-74
2021/10/20 03:07:47;;;;;;;6.73;5.23;;;;;;;10.99;78.19;100373.22;4857061;29;20482;-73
2021/10/20 03:10:13;;;;;;;8.75;6.40;;;;;;;11.01;78.20;100371.91;4860816;29;20934;-74
2021/10/20 03:12:38;;;;;;;9.95;7.72;;;;;;;10.99;78.40;100367.78;4862403;29;20436;-74
2021/10/20 03:15:05;;;;;;;6.97;5.57;;;;;;;10.96;78.55;100376.44;4862242;29;20918;-74
2021/10/20 03:17:30;;;;;;;6.63;5.75;;;;;;;10.93;78.61;100372.34;4845267;29;20425;-74
2021/10/20 03:19:55;;;;;;;9.67;6.53;;;;;;;10.93;78.63;100369.63;4860100;29;20418;-74
2021/10/20 03:22:20;;;;;;;5.53;5.03;;;;;;;10.94;78.82;100373.97;4861743;29;20418;-74
2021/10/20 03:24:46;;;;;;;7.93;5.47;;;;;;;10.96;78.94;100373.72;4845648;29;20410;-74
2021/10/20 03:27:11;;;;;;;6.57;4.87;;;;;;;10.96;78.96;100379.16;4861706;29;20457;-74
2021/10/20 03:29:36;;;;;;;8.87;5.10;;;;;;;10.92;78.79;100373.41;4862182;29;20414;-74
2021/10/20 03:32:02;;;;;;;5.47;4.73;;;;;;;10.89;79.04;100363.88;4862084;29;20458;-74
2021/10/20 03:34:27;;;;;;;6.72;4.78;;;;;;;10.87;79.15;100366.00;4843815;29;20418;-74
2021/10/20 03:36:53;;;;;;;7.07;5.27;;;;;;;10.87;79.19;100365.16;4844614;29;20415;-74
2021/10/20 03:39:18;;;;;;;7.63;5.37;;;;;;;10.87;79.16;100368.72;4844994;29;20977;-74
2021/10/20 03:41:43;;;;;;;5.87;4.83;;;;;;;10.85;79.20;100370.03;4861638;29;20446;-74
2021/10/20 03:44:09;;;;;;;13.07;6.40;;;;;;;10.81;79.14;100372.41;4861416;29;20422;-74
2021/10/20 03:46:34;;;;;;;7.97;5.57;;;;;;;10.80;79.00;100372.69;4861635;29;20427;-74
2021/10/20 03:48:59;;;;;;;5.80;5.23;;;;;;;10.78;79.24;100372.09;4859384;29;20774;-74
2021/10/20 03:51:24;;;;;;;6.57;5.30;;;;;;;10.75;79.19;100373.41;4860137;29;20418;-74
2021/10/20 03:53:50;;;;;;;7.50;4.90;;;;;;;10.71;79.23;100383.09;4860522;29;20886;-74
2021/10/20 03:56:15;;;;;;;6.90;5.60;;;;;;;10.69;79.44;100387.13;4861623;29;20402;-74
2021/10/20 03:58:40;;;;;;;6.23;4.77;;;;;;;10.65;79.22;100384.09;4846734;29;20434;-74
2021/10/20 04:01:06;;;;;;;8.50;5.30;;;;;;;10.64;79.49;100382.44;4860918;29;20486;-74
2021/10/20 04:03:31;;;;;;;39.47;8.17;;;;;;;10.63;79.55;100380.81;4859761;29;20513;-74
2021/10/20 04:05:56;;;;;;;14.82;6.63;;;;;;;10.64;79.80;100389.75;4861341;29;20413;-74
2021/10/20 04:08:22;;;;;;;7.27;5.47;;;;;;;10.62;79.16;100378.34;4856295;29;20438;-74
2021/10/20 04:10:47;;;;;;;10.95;5.90;;;;;;;10.60;79.30;100375.91;4844475;29;20410;-74
2021/10/20 04:13:12;;;;;;;6.17;5.43;;;;;;;10.59;79.20;100385.09;4860720;29;20834;-74
2021/10/20 04:15:37;;;;;;;7.95;5.68;;;;;;;10.59;79.48;100385.09;4861213;29;20437;-74
2021/10/20 04:18:03;;;;;;;8.40;5.53;;;;;;;10.56;79.31;100379.34;4861283;29;20406;-74
2021/10/20 04:20:29;;;;;;;8.37;5.07;;;;;;;10.51;79.24;100382.78;4861031;29;20979;-74
2021/10/20 04:22:54;;;;;;;7.50;5.70;;;;;;;10.50;78.84;100370.31;4858797;29;20537;-74
2021/10/20 04:25:20;;;;;;;9.60;5.53;;;;;;;10.49;79.08;100365.97;4861075;29;20414;-74
2021/10/20 04:27:47;;;;;;;5.95;4.85;;;;;;;10.48;79.14;100367.00;4860969;29;20418;-74
2021/10/20 04:30:15;;;;;;;9.02;4.93;;;;;;;10.48;78.84;100361.59;4861197;29;20804;-74
2021/10/20 04:32:41;;;;;;;8.93;4.97;;;;;;;10.47;79.12;100359.16;4858605;29;20426;-74
2021/10/20 04:35:08;;;;;;;10.77;5.40;;;;;;;10.47;79.27;100353.72;4844297;29;20444;-74
2021/10/20 04:37:33;;;;;;;6.63;4.47;;;;;;;10.45;79.42;100358.56;4859295;29;20902;-74
2021/10/20 04:40:00;;;;;;;9.27;4.50;;;;;;;10.39;79.05;100365.78;4843659;29;20418;-74
2021/10/20 04:42:27;;;;;;;5.93;4.70;;;;;;;10.34;78.89;100358.38;4860528;29;20430;-74
2021/10/20 04:44:53;;;;;;;7.68;5.18;;;;;;;10.33;78.97;100364.06;4843912;29;20531;-74
2021/10/20 04:47:19;;;;;;;9.67;6.53;;;;;;;10.32;79.20;100357.81;4860713;29;20494;-74
2021/10/20 04:49:45;;;;;;;7.80;5.88;;;;;;;10.31;79.41;100348.03;4841909;29;20520;-74
2021/10/20 04:52:10;;;;;;;9.65;5.75;;;;;;;10.26;79.52;100344.44;4856717;29;20828;-74
2021/10/20 04:54:36;;;;;;;6.00;5.43;;;;;;;10.24;79.19;100347.38;4860488;29;20857;-74
2021/10/20 04:57:02;;;;;;;7.60;5.20;;;;;;;10.24;79.42;100341.97;4860714;29;20755;-74
2021/10/20 04:59:31;;;;;;;7.90;5.13;;;;;;;10.24;79.25;100335.75;4860576;29;20405;-73
2021/10/20 05:01:57;;;;;;;9.50;5.88;;;;;;;10.24;79.37;100336.56;4857620;29;20418;-74
2021/10/20 05:04:22;;;;;;;6.47;5.78;;;;;;;10.24;79.47;100338.47;4858913;29;20488;-74
2021/10/20 05:06:47;;;;;;;7.63;5.83;;;;;;;10.25;79.54;100337.38;4855742;29;20433;-74
2021/10/20 05:09:12;;;;;;;9.77;5.30;;;;;;;10.26;79.56;100325.50;4858323;29;20483;-74
2021/10/20 05:11:38;;;;;;;9.37;4.87;;;;;;;10.26;79.23;100322.78;4859363;29;20433;-74
2021/10/20 05:14:03;;;;;;;7.20;4.80;;;;;;;10.27;79.22;100325.22;4859806;29;20426;-74
2021/10/20 05:16:31;;;;;;;8.50;5.23;;;;;;;10.26;79.27;100322.78;4860323;29;20413;-74
2021/10/20 05:18:59;;;;;;;6.00;4.53;;;;;;;10.27;79.24;100317.09;4859242;29;20414;-74
2021/10/20 05:21:24;;;;;;;6.17;4.87;;;;;;;10.29;79.41;100311.44;4860109;29;20776;-75
2021/10/20 05:23:50;;;;;;;7.33;5.07;;;;;;;10.29;79.47;100306.03;4843423;29;20413;-74
2021/10/20 05:26:17;;;;;;;5.93;4.20;;;;;;;10.27;79.46;100310.88;4859874;29;20953;-74
2021/10/20 05:28:42;;;;;;;7.95;4.80;;;;;;;10.23;79.54;100313.25;4856999;29;20449;-74
2021/10/20 05:31:08;;;;;;;6.60;4.50;;;;;;;10.20;79.25;100315.63;4857681;29;20780;-74
2021/10/20 05:33:33;;;;;;;12.43;5.20;;;;;;;10.16;79.15;100312.59;4859221;29;20493;-74
2021/10/20 05:35:58;;;;;;;6.27;4.90;;;;;;;10.16;79.33;100307.19;4855421;29;20442;-74
2021/10/20 05:38:24;;;;;;;11.43;5.50;;;;;;;10.17;79.12;100308.84;4857902;29;20433;-74
2021/10/20 05:40:49;;;;;;;7.43;4.78;;;;;;;10.17;79.11;100308.84;4843048;29;20496;-74
2021/10/20 05:43:14;;;;;;;5.53;4.23;;;;;;;10.18;79.27;100305.03;4857172;29;21246;-74
2021/10/20 05:45:40;;;;;;;5.45;4.85;;;;;;;10.19;79.41;100303.16;4858057;29;20442;-74
2021/10/20 05:48:05;;;;;;;7.07;4.67;;;;;;;10.18;79.27;100301.50;4853346;29;20505;-74
2021/10/20 05:50:30;;;;;;;17.20;4.85;;;;;;;10.17;79.18;100300.72;4854185;29;20426;-74
2021/10/20 05:52:57;;;;;;;10.17;6.30;;;;;;;10.16;79.44;100293.66;4859142;29;20418;-74
2021/10/20 05:55:25;;;;;;;11.10;7.13;;;;;;;10.21;79.60;100292.88;4858206;29;20430;-74
2021/10/20 05:57:50;;;;;;;7.63;5.78;;;;;;;10.29;79.70;100300.63;4843017;29;20474;-74
2021/10/20 06:00:15;;;;;;;6.07;5.50;;;;;;;10.34;79.69;100298.00;4842247;29;20879;-74
2021/10/20 06:02:41;;;;;;;10.93;6.00;;;;;;;10.33;79.59;100297.19;4859028;29;20417;-74
2021/10/20 06:05:07;;;;;;;6.73;4.50;;;;;;;10.33;79.46;100291.75;4853914;29;20583;-74
2021/10/20 06:07:37;;;;;;;11.63;4.97;;;;;;;10.32;79.28;100292.00;4857374;29;20452;-74
2021/10/20 06:10:03;;;;;;;6.70;4.83;;;;;;;10.37;78.94;100289.38;4851443;29;20914;-74
2021/10/20 06:12:28;;;;;;;5.27;4.63;;;;;;;10.40;78.98;100278.03;4856464;29;20410;-74
2021/10/20 06:14:53;;;;;;;6.50;4.90;;;;;;;10.47;79.10;100292.25;4858697;29;20940;-74
2021/10/20 06:17:22;;;;;;;10.07;4.97;;;;;;;10.50;78.84;100280.91;4839137;29;20931;-74
2021/10/20 06:19:48;;;;;;;7.93;4.88;;;;;;;10.51;79.06;100287.13;4840816;29;20422;-74
2021/10/20 06:22:14;;;;;;;8.55;4.88;;;;;;;10.53;78.54;100291.25;4853602;29;20430;-74
2021/10/20 06:24:39;;;;;;;6.60;5.05;;;;;;;10.51;78.34;100277.09;4857455;29;20426;-74
2021/10/20 06:27:05;;;;;;;7.22;4.43;;;;;;;10.56;78.45;100279.09;4855665;29;20509;-74
2021/10/20 06:29:30;;;;;;;5.83;4.47;;;;;;;10.56;78.85;100277.19;4852299;29;20905;-74
2021/10/20 06:31:55;;;;;;;6.20;4.30;;;;;;;10.56;79.17;100270.97;4858124;29;20425;-75
2021/10/20 06:34:21;;;;;;;5.43;4.40;;;;;;;10.58;79.13;100277.75;4858824;29;20936;-74
2021/10/20 06:36:46;;;;;;;4.83;4.37;;;;;;;10.57;79.33;100270.69;4857562;29;20429;-74
2021/10/20 06:39:12;;;;;;;4.67;4.27;;;;;;;10.62;79.22;100275.38;4857684;29;20421;-74
2021/10/20 06:41:37;;;;;;;7.37;4.50;;;;;;;10.63;79.09;100280.56;4858685;29;20422;-74
2021/10/20 06:44:03;;;;;;;6.73;4.90;;;;;;;10.66;79.15;100279.22;4843519;29;20801;-74
2021/10/20 06:46:28;;;;;;;8.55;5.78;;;;;;;10.64;79.04;100268.63;4859896;29;20794;-77
2021/10/20 06:48:53;;;;;;;8.43;6.30;;;;;;;10.67;79.16;100270.03;4845598;29;20432;-74
2021/10/20 06:51:19;;;;;;;7.80;6.00;;;;;;;10.71;78.76;100261.13;4858860;29;20475;-75
2021/10/20 06:53:44;;;;;;;9.23;8.13;;;;;;;10.81;78.52;100260.44;4843906;29;20501;-74
2021/10/20 06:56:09;;;;;;;15.57;10.23;;;;;;;10.85;78.10;100256.19;4847957;29;20472;-75
2021/10/20 06:58:36;;;;;;;31.80;17.63;;;;;;;10.86;78.13;100246.97;4840965;29;20429;-74
2021/10/20 07:01:01;;;;;;;25.20;15.50;;;;;;;10.91;77.90;100237.00;4858406;29;20411;-75
2021/10/20 07:03:26;;;;;;;23.92;16.27;;;;;;;10.99;77.56;100235.75;4861557;29;20406;-76
2021/10/20 07:05:52;;;;;;;19.53;12.57;;;;;;;11.08;77.38;100234.22;4865488;29;20410;-75
2021/10/20 07:08:17;;;;;;;16.83;10.33;;;;;;;11.11;77.24;100222.88;4861245;29;20501;-74
2021/10/20 07:10:43;;;;;;;15.57;7.93;;;;;;;11.17;77.45;100224.56;4858568;29;20956;-75
2021/10/20 07:13:08;;;;;;;7.40;5.20;;;;;;;11.25;77.18;100228.72;4861544;29;20422;-75
2021/10/20 07:15:34;;;;;;;15.40;9.18;;;;;;;11.28;77.48;100222.78;4856345;29;20923;-75
2021/10/20 07:17:59;;;;;;;7.32;6.38;;;;;;;11.33;77.57;100220.13;4845892;29;20871;-76
2021/10/20 07:20:25;;;;;;;9.80;5.80;;;;;;;11.39;77.50;100224.53;4860815;29;20507;-75
2021/10/20 07:22:50;;;;;;;7.57;5.67;;;;;;;11.41;77.94;100223.22;4844879;29;20418;-75
2021/10/20 07:25:19;;;;;;;10.70;7.17;;;;;;;11.45;78.48;100220.81;4861485;29;20755;-75
2021/10/20 07:27:48;;;;;;;11.25;6.45;;;;;;;11.46;78.33;100211.56;4847079;29;20575;-75
2021/10/20 07:30:14;;;;;;;9.07;7.10;;;;;;;11.52;78.21;100201.59;4844864;29;21010;-75
2021/10/20 07:32:41;;;;;;;7.53;6.10;;;;;;;11.58;78.22;100200.56;4860626;29;20421;-75
2021/10/20 07:35:08;;;;;;;8.63;7.20;;;;;;;11.65;78.18;100206.63;4861362;29;20827;-75
2021/10/20 07:37:34;;;;;;;7.63;6.15;;;;;;;11.71;77.84;100206.44;4858934;29;20410;-75
2021/10/20 07:39:59;;;;;;;7.77;7.00;;;;;;;11.78;77.98;100212.47;4847840;29;20779;-75
2021/10/20 07:42:25;;;;;;;11.83;7.20;;;;;;;11.87;78.03;100210.09;4857548;29;20510;-75
2021/10/20 07:44:50;;;;;;;10.43;7.70;;;;;;;11.96;77.72;100208.53;4861055;29;20431;-75
2021/10/20 07:47:17;;;;;;;11.10;6.40;;;;;;;12.09;77.56;100216.22;4843819;29;20417;-74
2021/10/20 07:49:42;;;;;;;8.02;6.25;;;;;;;12.22;77.64;100218.50;4859880;29;20422;-75
2021/10/20 07:52:08;;;;;;;7.47;5.40;;;;;;;12.31;77.56;100218.84;4859652;29;20445;-75
2021/10/20 07:54:33;;;;;;;10.23;5.60;;;;;;;12.39;77.37;100221.03;4859154;29;20430;-75
2021/10/20 07:56:59;;;;;;;6.47;5.30;;;;;;;12.46;76.86;100222.47;4860144;29;21463;-75
2021/10/20 07:59:24;;;;;;;7.18;5.28;;;;;;;12.53;76.83;100222.22;4844187;29;20506;-75
2021/10/20 08:01:50;;;;;;;9.73;5.60;;;;;;;12.57;77.33;100219.81;4857636;29;20426;-75
2021/10/20 08:04:15;;;;;;;7.80;5.07;;;;;;;12.65;77.05;100219.28;4844419;29;20440;-75
2021/10/20 08:06:41;;;;;;;7.97;4.60;;;;;;;12.71;77.02;100216.31;4859247;29;20430;-75
2021/10/20 08:09:06;;;;;;;4.60;4.10;;;;;;;12.80;76.47;100211.22;4859400;29;20436;-75
2021/10/20 08:11:32;;;;;;;5.90;4.20;;;;;;;12.93;76.29;100199.84;4861196;29;20414;-76
2021/10/20 08:13:58;;;;;;;6.50;3.93;;;;;;;13.01;75.34;100181.09;4859855;29;21029;-75
2021/10/20 08:16:23;;;;;;;4.87;3.20;;;;;;;13.11;74.94;100188.50;4842879;29;20462;-75
2021/10/20 08:18:48;;;;;;;4.22;3.85;;;;;;;13.22;74.38;100184.72;4860431;29;20902;-75
2021/10/20 08:21:14;;;;;;;3.90;3.10;;;;;;;13.34;74.20;100179.84;4860983;29;20925;-75
2021/10/20 08:23:41;;;;;;;3.93;2.90;;;;;;;13.47;73.48;100176.59;4843550;29;20418;-75
2021/10/20 08:26:08;;;;;;;4.25;2.97;;;;;;;13.60;73.54;100167.06;4860810;29;20414;-74
2021/10/20 08:28:33;;;;;;;3.22;2.67;;;;;;;13.74;73.24;100164.63;4860625;29;20406;-76
2021/10/20 08:30:58;;;;;;;3.07;2.80;;;;;;;13.86;72.73;100143.41;4858161;29;20421;-75
2021/10/20 08:33:24;;;;;;;3.95;2.75;;;;;;;13.97;72.06;100137.66;4858882;29;20426;-74
2021/10/20 08:35:49;;;;;;;2.60;2.40;;;;;;;14.11;71.17;100139.81;4860134;29;20433;-75
2021/10/20 08:38:14;;;;;;;4.53;3.83;;;;;;;14.26;71.16;100143.31;4860255;29;20518;-75
2021/10/20 08:40:45;;;;;;;5.13;4.03;;;;;;;14.39;70.43;100148.22;4843588;29;20419;-74
2021/10/20 08:43:12;;;;;;;7.90;4.32;;;;;;;14.55;69.72;100143.53;4842244;29;20414;-75
2021/10/20 08:45:38;;;;;;;8.60;3.50;;;;;;;14.68;69.51;100145.66;4840434;29;20792;-74
2021/10/20 08:48:03;;;;;;;10.77;6.10;;;;;;;14.83;68.76;100148.31;4841864;29;20412;-74
2021/10/20 08:50:34;;;;;;;10.10;4.35;;;;;;;14.95;68.92;100142.53;4841557;29;20416;-75
2021/10/20 08:53:00;;;;;;;2.75;2.50;;;;;;;14.94;68.90;100139.00;4840402;29;20776;-75
2021/10/20 08:55:26;;;;;;;4.18;3.78;;;;;;;15.04;68.50;100127.22;4840442;29;20958;-73
2021/10/20 08:57:53;;;;;;;2.88;2.60;;;;;;;15.21;67.88;100107.72;4838904;29;20455;-75
2021/10/20 09:00:19;;;;;;;2.60;2.22;;;;;;;15.26;67.37;100096.75;4840816;29;20871;-74
2021/10/20 09:02:47;;;;;;;4.20;2.80;;;;;;;15.37;67.30;100095.59;4840720;29;20756;-73
2021/10/20 09:05:15;;;;;;;5.05;2.72;;;;;;;15.42;67.65;100103.72;4841521;29;21083;-74
2021/10/20 09:07:45;;;;;;;2.78;2.50;;;;;;;15.52;68.02;100100.94;4840118;29;20838;-72
2021/10/20 09:10:12;;;;;;;3.22;2.90;;;;;;;15.68;67.44;100079.75;4838642;29;20475;-75
2021/10/20 09:12:40;;;;;;;4.60;2.30;;;;;;;15.84;66.83;100082.06;4839029;29;20424;-75
2021/10/20 09:15:19;;;;;;;3.33;2.35;;;;;;;15.95;66.35;100078.13;4838057;29;20454;-75
2021/10/20 09:17:44;;;;;;;2.67;2.50;;;;;;;16.05;66.76;100088.97;4842591;29;20924;-75
2021/10/20 09:20:19;;;;;;;3.72;2.83;;;;;;;16.08;66.21;100087.56;4846458;29;20423;-76
2021/10/20 09:22:56;;;;;;;3.08;2.67;;;;;;;16.09;66.69;100083.72;4838843;29;20416;-73
2021/10/20 09:25:31;;;;;;;2.70;2.50;;;;;;;16.14;66.38;100074.66;4839001;29;20423;-75
2021/10/20 09:27:57;;;;;;;4.50;2.30;;;;;;;16.15;66.47;100070.81;4832952;29;20424;-75
2021/10/20 09:30:22;;;;;;;4.82;3.10;;;;;;;16.17;66.71;100072.16;4840110;29;20414;-75
2021/10/20 09:32:51;;;;;;;3.60;2.80;;;;;;;16.17;66.79;100065.88;4841212;29;20507;-75
2021/10/20 09:35:17;;;;;;;4.60;2.72;;;;;;;16.26;65.83;100075.06;4840904;29;20439;-74
2021/10/20 09:37:42;;;;;;;4.00;2.90;;;;;;;16.41;65.92;100070.22;4841091;29;20757;-75
2021/10/20 09:40:12;;;;;;;2.83;2.37;;;;;;;16.51;66.14;100061.06;4845962;29;20429;-75
2021/10/20 09:42:49;;;;;;;3.15;2.50;;;;;;;16.63;65.65;100058.75;4840211;29;20519;-76
2021/10/20 09:45:16;;;;;;;2.78;2.42;;;;;;;16.59;65.92;100061.28;4846022;29;20430;-75
2021/10/20 09:47:42;;;;;;;2.53;2.15;;;;;;;16.57;65.86;100063.47;4858538;29;20422;-76
2021/10/20 09:50:09;;;;;;;3.05;2.50;;;;;;;17.17;64.94;100060.16;4857745;29;20498;-75
2021/10/20 09:52:50;;;;;;;2.40;2.20;;;;;;;19.00;59.93;100065.41;4857992;29;20969;-73
2021/10/20 09:55:32;;;;;;;3.13;2.30;;;;;;;20.24;56.07;100057.31;4857486;29;20476;-76
2021/10/20 09:58:10;;;;;;;2.40;2.20;;;;;;;20.38;55.53;100069.88;4856809;29;20811;-75
2021/10/20 10:00:36;;;;;;;2.60;2.40;;;;;;;20.22;55.29;100054.06;4857232;29;20840;-75
2021/10/20 10:03:02;;;;;;;2.78;2.58;;;;;;;19.56;57.35;100051.13;4842290;29;20418;-73
2021/10/20 10:05:29;;;;;;;3.13;2.10;;;;;;;19.60;57.40;100056.81;4859153;29;20406;-73
2021/10/20 10:07:54;;;;;;;2.22;2.05;;;;;;;19.59;57.22;100053.25;4858698;29;20422;-76
2021/10/20 10:10:20;;;;;;;3.00;2.50;;;;;;;19.28;58.20;100048.81;4859254;29;20418;-73
2021/10/20 10:12:47;;;;;;;2.10;2.00;;;;;;;18.92;59.10;100049.66;4859052;29;20418;-75
2021/10/20 10:15:16;;;;;;;2.40;2.30;;;;;;;18.60;60.01;100047.94;4847606;29;20551;-75
2021/10/20 10:17:43;;;;;;;6.22;2.13;;;;;;;18.38;60.51;100052.47;4852663;29;20418;-73
2021/10/20 10:20:17;;;;;;;3.13;2.03;;;;;;;18.20;61.42;100051.50;4858455;29;20406;-75
2021/10/20 10:22:54;;;;;;;4.00;2.15;;;;;;;18.26;60.72;100046.69;4858971;29;20463;-74
2021/10/20 10:25:37;;;;;;;6.53;2.63;;;;;;;18.24;60.96;100040.72;4844855;29;20828;-74
2021/10/20 10:28:22;;;;;;;3.20;1.88;;;;;;;18.21;60.89;100038.59;4856721;29;20498;-75
2021/10/20 10:30:55;;;;;;;4.27;2.20;;;;;;;18.21;61.19;100039.38;4839914;29;20450;-75
2021/10/20 10:33:24;;;;;;;1.90;1.77;;;;;;;18.18;61.00;100039.19;4851186;29;20414;-78
2021/10/20 10:36:13;;;;;;;4.93;2.28;;;;;;;18.18;61.36;100033.72;4858066;29;20438;-75
2021/10/20 10:38:57;;;;;;;2.40;1.70;;;;;;;18.26;61.37;100024.75;4858869;29;20454;-73
2021/10/20 10:41:43;;;;;;;2.83;2.13;;;;;;;18.40;61.15;100026.38;4858643;29;20505;-75
2021/10/20 10:44:11;;;;;;;1.90;1.80;;;;;;;18.47;60.51;100021.28;4857306;29;20418;-76
2021/10/20 10:47:05;;;;;;;2.35;2.00;;;;;;;18.54;59.34;100005.22;4858325;29;20562;-75
2021/10/20 10:49:39;;;;;;;5.38;2.50;;;;;;;18.55;59.07;100008.78;4856560;29;20422;-75
2021/10/20 10:52:17;;;;;;;2.80;2.50;;;;;;;18.58;59.32;100010.91;4858385;29;20418;-75
2021/10/20 10:55:13;;;;;;;2.10;1.98;;;;;;;18.74;58.37;99995.72;4858412;29;20430;-75
2021/10/20 10:57:57;;;;;;;3.47;2.00;;;;;;;18.92;58.51;99992.00;4857780;29;20820;-75
2021/10/20 11:00:22;;;;;;;5.03;1.55;;;;;;;18.98;57.24;99982.53;4856821;29;20903;-75
2021/10/20 11:03:06;;;;;;;2.87;1.80;;;;;;;19.03;57.46;99982.38;4858369;29;20412;-73
2021/10/20 11:05:32;;;;;;;3.15;1.90;;;;;;;19.07;56.86;99969.66;4857258;29;20509;-75
2021/10/20 11:08:12;;;;;;;3.20;1.83;;;;;;;19.18;57.17;99959.22;4840378;29;20509;-75
2021/10/20 11:10:40;;;;;;;2.00;1.70;;;;;;;19.33;55.34;99961.56;4858368;29;20406;-73
2021/10/20 11:13:07;;;;;;;2.08;1.70;;;;;;;19.42;55.59;99962.47;4841064;29;20414;-75
2021/10/20 11:15:33;;;;;;;2.55;1.63;;;;;;;19.48;56.10;99965.91;4855207;29;20438;-76
2021/10/20 11:17:59;;;;;;;4.07;1.83;;;;;;;19.68;56.24;99965.34;4857249;29;20453;-73
2021/10/20 11:20:30;;;;;;;2.17;1.63;;;;;;;19.76;54.77;99963.78;4857647;29;20851;-74
2021/10/20 11:23:00;;;;;;;3.15;1.63;;;;;;;19.83;55.57;99961.34;4857326;29;20430;-75